Tiempo atmosférico en la estación meteorológica de Chandrexa De Queixa, Ourense (990 m.)



Fecha
DESCASC
Temp. máxima en grados centígrados (hora)
DESCASC
Temp. mínima en grados centígrados (hora)
DESCASC
Temp. media en grados centígrados
DESCASC
Racha de viento máxima en m/sg (hora)
DESCASC
Velocidad máxima media en intervalos de 10 minutos(hora)
DESCASC
Precipitaciones diarias en mm
DESCASC
Precipitaciones de 00:00 a 06:00 en mm
DESCASC
Precipitaciones de 06:00 a 12:00 en mm
DESCASC
Precipitaciones de 12:00 a 18:00 en mm
DESCASC
Precipitaciones de 18:00 a 24:00 en mm
DESCASC
18-08-2019 19.9 (17:20) 12 (23:30) 15.9 6.67 (06:00) 3.33 (06:00) 10.4 0 6.6 3.8 0
17-08-2019 28.1 (15:40) 10.1 (07:00) 19.1 6.67 (18:10) 2.5 (15:20) 0 0 0 0 0
16-08-2019 27.4 (16:10) 9.8 (07:40) 18.6 6.67 (18:10) 2.5 (18:10) 0 0 0 0 0
15-08-2019 26.2 (17:00) 9.4 (00:00) 17.8 6.67 (16:20) 2.78 (19:40) 0 0 0 0 0
14-08-2019 25.7 (15:10) 8.9 (00:00) 17.3 6.94 (19:10) 2.5 (17:40) 0 0 0 0 0
13-08-2019 24.1 (17:30) 5.5 (00:00) 14.8 5.56 (15:40) 2.78 (15:00) 0 0 0 0 0
12-08-2019 17 (14:40) 8.6 (00:00) 12.8 5.83 (14:30) 2.78 (15:10) 0 0 0 0 0
11-08-2019 17.4 (15:00) 9 (00:00) 13.2 9.17 (17:20) 3.33 (16:30) 2.6 0 0 0.6 2
10-08-2019 21.4 (15:20) 8.4 (00:00) 14.9 6.67 (17:40) 3.33 (01:10) 0 0 0 0 0
09-08-2019 19.6 (15:50) 12.9 (00:00) 16.3 21.67 (02:00) 14.17 (00:30) 1.8 1.8 0 0 0
08-08-2019 21 (17:40) 15.8 (00:00) 18.4 23.06 (18:40) 15 (18:30) 0.8 0 0 0.8 0
07-08-2019 19.6 (12:40) 11.4 (00:00) 15.5 14.44 (23:59) 9.17 (23:59) 2.8 0 0 2 0.8
06-08-2019 22.2 (14:10) 12 (00:00) 17.1 6.67 (17:20) 3.06 (17:20) 0 0 0 0 0
05-08-2019 27.1 (16:00) 9.8 (00:00) 18.5 5.83 (16:20) 2.5 (16:20) 0 0 0 0 0
04-08-2019 25.6 (16:20) 15 (00:00) 20.3 7.78 (17:20) 3.06 (17:20) 0 0 0 0 0
03-08-2019 27.5 (17:40) 11.2 (00:00) 19.3 6.94 (19:50) 3.06 (17:40) 0 0 0 0 0
02-08-2019 28.2 (16:20) 10.2 (00:00) 19.2 6.67 (16:40) 3.06 (17:50) 0 0 0 0 0
01-08-2019 25.2 (16:30) 8.3 (00:00) 16.8 6.11 (17:50) 2.78 (18:10) 0 0 0 0 0
31-07-2019 21.9 (16:00) 6.3 (00:00) 14.1 6.67 (16:10) 2.78 (16:00) 0 0 0 0 0
30-07-2019 18.9 (17:10) 8 (00:00) 13.4 5.83 (15:30) 3.06 (18:20) 0 0 0 0 0
29-07-2019 17.3 (15:50) 10.3 (00:00) 13.8 8.61 (16:00) 3.61 (15:50) 0.2 0 0.2 0 0
28-07-2019 25.1 (17:10) 7.6 (00:00) 16.4 6.11 (11:30) 3.61 (17:10) 0 0 0 0 0
27-07-2019 17.5 (18:00) 9.9 (00:00) 13.7 7.78 (11:20) 3.61 (11:00) 0.2 0 0 0.2 0
26-07-2019 19.5 (16:40) 9.5 (00:00) 14.5 7.22 (17:00) 2.78 (11:40) 0.2 0.2 0 0 0
25-07-2019 24 (13:20) 13.2 (00:00) 18.6 10.28 (12:10) 6.94 (12:00) 0.8 0 0 0.2 0.6
24-07-2019 30.1 (16:50) 12.2 (00:00) 21.2 14.17 (14:20) 10.28 (14:50) 0 0 0 0 0
23-07-2019 29.1 (16:10) 16.9 (00:00) 23 17.78 (06:50) 12.22 (06:20) 0.2 0 0 0.2 0
22-07-2019 33.5 (15:50) 11.8 (00:00) 22.7 8.89 (14:10) 5.28 (14:40) 0 0 0 0 0
21-07-2019 26.3 (15:20) 10.9 (00:00) 18.6 5 (20:00) 2.78 (11:00) 0 0 0 0 0

Gráficas

Temp. máximas Temp. mínimas Temp. medias Precipitaciones Rachas de viento máximas Velocidades máximas media en intervalos de 10 minutos

Datos horarios

Fecha y hora oficial Temperatura (ºC) Velocidad del viento (km/h) Dirección del viento Racha (km/h) Dirección de racha Precipitación (mm) Presión (hPa) Tendencia (hPa) Humedad (%)
2019-08-19 23:00:00 12.6 2 Oeste 20 Noroeste 0 -- -- 87
2019-08-19 22:00:00 13.6 4 Norte 15 Norte 0 -- -- 82
2019-08-19 21:00:00 14.4 3 Nordeste 16 Norte 0 -- -- 80
2019-08-19 20:00:00 15.1 6 Norte 26 Noroeste 0 -- -- 78
2019-08-19 19:00:00 17.1 9 Norte 22 Noroeste 0 -- -- 70
2019-08-19 18:00:00 18.7 5 Norte 19 Oeste 0 -- -- 61
2019-08-19 17:00:00 18.9 5 Norte 16 Norte 0 -- -- 62
2019-08-19 16:00:00 19.1 8 Norte 17 Norte 0 -- -- 65
2019-08-19 15:00:00 17.8 9 Nordeste 18 Norte 0 -- -- 68
2019-08-19 14:00:00 16.9 6 Nordeste 14 Nordeste 0 -- -- 63
2019-08-19 13:00:00 14.6 5 Norte 10 Nordeste 0 -- -- 77
2019-08-19 12:00:00 12.4 3 Norte 8 Norte 0 -- -- 89
2019-08-19 11:00:00 10.9 0 Calma 5 Sudeste 0 -- -- 94
2019-08-19 10:00:00 9.3 2 Sur 6 Nordeste 0 -- -- 98
2019-08-19 09:00:00 8.7 0 Calma 4 Norte 0 -- -- 97
2019-08-19 08:00:00 8.3 0 Calma 6 Este 0 -- -- 97
2019-08-19 07:00:00 8.4 0 Calma 6 Sur 0 -- -- 94
2019-08-19 06:00:00 9.6 0 Calma 6 Sudeste 0 -- -- 97
2019-08-19 05:00:00 9.9 0 Calma 8 Norte 0 -- -- 95
2019-08-19 04:00:00 10.4 5 Norte 8 Nordeste 0 -- -- 94
2019-08-19 03:00:00 10.9 0 Calma 6 Norte 0 -- -- 95
2019-08-19 02:00:00 10.9 0 Calma 10 Norte 0 -- -- 95
2019-08-19 01:00:00 11.6 3 Norte 8 Noroeste 0 -- -- 92
2019-08-19 00:00:00 12 0 Calma 19 Noroeste 0 -- -- 92
2019-08-18 23:00:00 12.6 3 Norte 20 Norte 0 -- -- 92
2019-08-18 22:00:00 13.8 5 Norte 14 Norte 0 -- -- 89
2019-08-18 21:00:00 15 5 Norte 14 Noroeste 0 -- -- 84
2019-08-18 20:00:00 16.3 5 Noroeste 15 Noroeste 0 -- -- 78
2019-08-18 19:00:00 17.3 4 Noroeste 21 Norte 0 -- -- 79
2019-08-18 18:00:00 18.6 7 Noroeste 18 Norte 0 -- -- 77
2019-08-18 17:00:00 19.3 4 Oeste 17 Noroeste 0 -- -- 79
2019-08-18 16:00:00 19.4 4 Noroeste 15 Noroeste 0 -- -- 82
2019-08-18 15:00:00 17.9 5 Norte 10 Norte 0 -- -- 90
2019-08-18 14:00:00 16.1 3 Norte 14 Noroeste 0.8 -- -- 93
2019-08-18 13:00:00 15.8 5 Norte 13 Nordeste 3 -- -- 95
2019-08-18 12:00:00 16.4 0 Calma 12 Sudoeste 5.8 -- -- 96
2019-08-18 11:00:00 16.2 2 Oeste 12 Sudoeste 0.8 -- -- 94
2019-08-18 10:00:00 15.8 8 Oeste 14 Sudoeste 0 -- -- 94
2019-08-18 09:00:00 15.8 4 Oeste 17 Sur 0 -- -- 93
2019-08-18 08:00:00 15.7 12 Sudoeste 20 Sudoeste 0 -- -- 91
2019-08-18 07:00:00 14.5 4 Norte 19 Sur 0 -- -- 90
2019-08-18 06:00:00 14.2 12 Sudoeste 24 Sudoeste 0 -- -- 89
2019-08-18 05:00:00 13.8 8 Sur 14 Sudeste 0 -- -- 89
2019-08-18 04:00:00 13.6 2 Sudoeste 12 Sudoeste 0 -- -- 91
2019-08-18 03:00:00 14.3 2 Oeste 10 Sudoeste 0 -- -- 91
2019-08-18 02:00:00 14.7 0 Calma 15 Sudoeste 0 -- -- 89
2019-08-18 01:00:00 14.7 3 Oeste 8 Sudoeste 0 -- -- 90
2019-08-18 00:00:00 15.8 3 Sur 8 Sur 0 -- -- 81
2019-08-17 23:00:00 17.5 0 Calma 15 Oeste 0 -- -- 85
2019-08-17 22:00:00 19.4 6 Oeste 19 Oeste 0 -- -- 81
2019-08-17 21:00:00 21.5 4 Oeste 24 Oeste 0 -- -- 70
2019-08-17 20:00:00 23.3 6 Oeste 20 Sudoeste 0 -- -- 55
2019-08-17 19:00:00 24.7 8 Oeste 24 Oeste 0 -- -- 53
2019-08-17 18:00:00 26.2 7 Oeste 20 Oeste 0 -- -- 50
2019-08-17 17:00:00 27.8 7 Oeste 21 Sudoeste 0 -- -- 45
2019-08-17 16:00:00 27.7 6 Oeste 23 Oeste 0 -- -- 40
2019-08-17 15:00:00 27.5 6 Oeste 21 Sudoeste 0 -- -- 37
2019-08-17 14:00:00 26.5 6 Oeste 20 Oeste 0 -- -- 36
2019-08-17 13:00:00 25.5 6 Oeste 17 Oeste 0 -- -- 42
2019-08-17 12:00:00 23.4 4 Sudoeste 12 Oeste 0 -- -- 46
2019-08-17 11:00:00 17.9 3 Oeste 10 Sudoeste 0 -- -- 63
2019-08-17 10:00:00 13.6 4 Sudoeste 12 Oeste 0 -- -- 87
2019-08-17 09:00:00 11.2 4 Sudoeste 12 Sudoeste 0 -- -- 92
2019-08-17 08:00:00 10.4 5 Sudoeste 13 Sudoeste 0 -- -- 92
2019-08-17 07:00:00 10.1 6 Sudoeste 11 Oeste 0 -- -- 91
2019-08-17 06:00:00 10.3 5 Sudoeste 12 Oeste 0 -- -- 87
2019-08-17 05:00:00 10.5 4 Sur 10 Oeste 0 -- -- 83
2019-08-17 04:00:00 11.1 4 Sudoeste 10 Sudoeste 0 -- -- 82
2019-08-17 03:00:00 11.8 3 Oeste 10 Sudoeste 0 -- -- 88
2019-08-17 02:00:00 12.6 5 Sudoeste 12 Sudoeste 0 -- -- 83
2019-08-17 01:00:00 13.6 9 Sur 14 Sur 0 -- -- 79
2019-08-17 00:00:00 15.1 4 Sur 13 Sur 0 -- -- 83
2019-08-16 23:00:00 16.9 5 Sur 11 Sur 0 -- -- 78
2019-08-16 22:00:00 18.9 5 Sur 13 Sur 0 -- -- 70
2019-08-16 21:00:00 21.4 3 Sudoeste 15 Sudoeste 0 -- -- 61
2019-08-16 20:00:00 22.9 8 Oeste 20 Oeste 0 -- -- 54
2019-08-16 19:00:00 24.6 5 Oeste 24 Sudoeste 0 -- -- 41
2019-08-16 18:00:00 26.1 8 Oeste 21 Oeste 0 -- -- 43
2019-08-16 17:00:00 27.3 7 Oeste 22 Oeste 0 -- -- 38
2019-08-16 16:00:00 27.3 7 Oeste 20 Oeste 0 -- -- 30
2019-08-16 15:00:00 27.1 5 Oeste 19 Noroeste 0 -- -- 28
2019-08-16 14:00:00 26 5 Oeste 18 Sudoeste 0 -- -- 31
2019-08-16 13:00:00 25.6 5 Oeste 12 Noroeste 0 -- -- 34
2019-08-16 12:00:00 21.9 2 Sudoeste 5 Sur 0 -- -- 37
2019-08-16 11:00:00 16.2 3 Sur 6 Sur 0 -- -- 77
2019-08-16 10:00:00 12.2 0 Calma 9 Sudoeste 0 -- -- 90
2019-08-16 09:00:00 10.3 4 Sudoeste 9 Sudoeste 0 -- -- 96
2019-08-16 08:00:00 9.8 4 Sudoeste 8 Sudoeste 0 -- -- 97
2019-08-16 07:00:00 10.3 3 Sudoeste 8 Sudoeste 0 -- -- 96
2019-08-16 06:00:00 10.8 4 Sudoeste 8 Sudoeste 0 -- -- 96
2019-08-16 05:00:00 11.3 3 Sudoeste 9 Sudoeste 0 -- -- 96
2019-08-16 04:00:00 11.7 3 Sudoeste 6 Sudoeste 0 -- -- 93
2019-08-16 03:00:00 12.2 4 Sudoeste 9 Sudoeste 0 -- -- 94
2019-08-16 02:00:00 13 3 Sudoeste 12 Sur 0 -- -- 92
2019-08-16 01:00:00 13.9 4 Sur 10 Sur 0 -- -- 89
2019-08-16 00:00:00 15.1 5 Sur 12 Sur 0 -- -- 84
2019-08-15 23:00:00 16.9 4 Sur 9 Sur 0 -- -- 77
2019-08-15 22:00:00 18.8 2 Noroeste 8 Nordeste 0 -- -- 72
2019-08-15 21:00:00 20.9 5 Norte 15 Norte 0 -- -- 64
2019-08-15 20:00:00 22.1 6 Norte 24 Noroeste 0 -- -- 60
2019-08-15 19:00:00 23.2 10 Noroeste 24 Norte 0 -- -- 57
2019-08-15 18:00:00 24.9 9 Noroeste 22 Norte 0 -- -- 52
2019-08-15 17:00:00 26.2 6 Norte 24 Norte 0 -- -- 49
2019-08-15 16:00:00 26 8 Norte 22 Noroeste 0 -- -- 48
2019-08-15 15:00:00 25.6 7 Norte 17 Norte 0 -- -- 51
2019-08-15 14:00:00 24.9 8 Nordeste 17 Norte 0 -- -- 53
2019-08-15 13:00:00 24.1 7 Nordeste 15 Nordeste 0 -- -- 51
2019-08-15 12:00:00 21.9 4 Nordeste 7 Norte 0 -- -- 54
2019-08-15 11:00:00 16.5 3 Sur 5 Sur 0 -- -- 58
2019-08-15 10:00:00 12.4 0 Calma 6 Sur 0 -- -- 69
2019-08-15 09:00:00 9.9 3 Sudoeste 5 Sudoeste 0 -- -- 90
2019-08-15 08:00:00 9.6 3 Sudoeste 6 Sudoeste 0 -- -- 94
2019-08-15 07:00:00 9.9 3 Sur 5 Sudoeste 0 -- -- 82
2019-08-15 06:00:00 11 4 Sudoeste 7 Sudoeste 0 -- -- 90
2019-08-15 05:00:00 11.7 5 Sur 15 Sur 0 -- -- 82
2019-08-15 04:00:00 12.7 6 Sur 15 Sudeste 0 -- -- 85
2019-08-15 03:00:00 12.4 2 Sudeste 8 Sur 0 -- -- 86
2019-08-15 02:00:00 12.9 2 Sur 8 Sur 0 -- -- 83
2019-08-15 01:00:00 14.6 3 Sudoeste 12 Sur 0 -- -- 88
2019-08-15 00:00:00 16 0 Calma 10 Norte 0 -- -- 90
2019-08-14 23:00:00 17 0 Calma 12 Norte 0 -- -- 89
2019-08-14 22:00:00 17.8 0 Calma 14 Norte 0 -- -- 87
2019-08-14 21:00:00 19.7 4 Norte 13 Noroeste 0 -- -- 80
2019-08-14 20:00:00 20.2 8 Norte 25 Nordeste 0 -- -- 78
2019-08-14 19:00:00 22 8 Norte 21 Norte 0 -- -- 68
2019-08-14 18:00:00 22 8 Norte 19 Norte 0 -- -- 69
2019-08-14 17:00:00 22.6 8 Noroeste 19 Noroeste 0 -- -- 65
2019-08-14 16:00:00 24.8 5 Oeste 20 Oeste 0 -- -- 59
2019-08-14 15:00:00 25.6 8 Sudoeste 15 Noroeste 0 -- -- 57
2019-08-14 14:00:00 24.6 7 Oeste 18 Noroeste 0 -- -- 57
2019-08-14 13:00:00 23.2 5 Noroeste 14 Nordeste 0 -- -- 58
2019-08-14 12:00:00 21.2 5 Norte 12 Nordeste 0 -- -- 55
2019-08-14 11:00:00 16.4 0 Calma 5 Sur 0 -- -- 71
2019-08-14 10:00:00 12.5 2 Sudoeste 8 Oeste 0 -- -- 85
2019-08-14 09:00:00 9.9 3 Sudoeste 10 Sudoeste 0 -- -- 92
2019-08-14 08:00:00 9.1 3 Oeste 10 Sudoeste 0 -- -- 96
2019-08-14 07:00:00 9.3 0 Calma 8 Sudoeste 0 -- -- 94
2019-08-14 06:00:00 9.4 4 Sudoeste 6 Sudoeste 0 -- -- 94
2019-08-14 05:00:00 10 0 Calma 5 Sudoeste 0 -- -- 94
2019-08-14 04:00:00 10.3 0 Calma 6 Sur 0 -- -- 94
2019-08-14 03:00:00 10.7 3 Sur 5 Sur 0 -- -- 91
2019-08-14 02:00:00 11 5 Sur 9 Sur 0 -- -- 87
2019-08-14 01:00:00 11.9 5 Sur 9 Sur 0 -- -- 83
2019-08-14 00:00:00 12.6 8 Sur 11 Sudoeste 0 -- -- 78
2019-08-13 23:00:00 14.7 4 Sur 8 Sur 0 -- -- 64
2019-08-13 22:00:00 16 3 Sur 8 Sur 0 -- -- 54
2019-08-13 21:00:00 19.1 3 Noroeste 16 Noroeste 0 -- -- 40
2019-08-13 20:00:00 20.7 5 Noroeste 14 Oeste 0 -- -- 38
2019-08-13 19:00:00 21.6 4 Noroeste 17 Oeste 0 -- -- 37
2019-08-13 18:00:00 23 6 Oeste 18 Oeste 0 -- -- 38
2019-08-13 17:00:00 23.9 5 Sudoeste 17 Sudoeste 0 -- -- 39
2019-08-13 16:00:00 23.6 6 Oeste 20 Oeste 0 -- -- 42
2019-08-13 15:00:00 23.1 10 Sudoeste 17 Sudoeste 0 -- -- 45
2019-08-13 14:00:00 21 4 Nordeste 13 Norte 0 -- -- 52
2019-08-13 13:00:00 19.1 6 Norte 13 Nordeste 0 -- -- 63
2019-08-13 12:00:00 16.4 7 Norte 11 Norte 0 -- -- 71
2019-08-13 11:00:00 12.2 6 Nordeste 11 Norte 0 -- -- 87
2019-08-13 10:00:00 8.9 4 Norte 7 Nordeste 0 -- -- 96
2019-08-13 09:00:00 6.5 0 Calma 5 Sudoeste 0 -- -- 100
2019-08-13 08:00:00 5.5 2 Sudoeste 4 Sudoeste 0 -- -- 99
2019-08-13 07:00:00 6 0 Calma 6 Sur 0 -- -- 99
2019-08-13 06:00:00 6.3 0 Calma 4 Sudoeste 0 -- -- 98
2019-08-13 05:00:00 6.3 3 Sur 5 Sur 0 -- -- 96
2019-08-13 04:00:00 6.8 3 Sudoeste 5 Oeste 0 -- -- 95
2019-08-13 03:00:00 7.3 3 Sur 5 Sur 0 -- -- 94
2019-08-13 02:00:00 7.9 0 Calma 8 Sur 0 -- -- 92
2019-08-13 01:00:00 8.8 3 Sur 9 Sur 0 -- -- 90
2019-08-13 00:00:00 9.7 4 Sur 8 Sudeste 0 -- -- 86
2019-08-12 23:00:00 11.5 4 Sur 6 Sur 0 -- -- 81
2019-08-12 22:00:00 13.2 0 Calma 7 Norte 0 -- -- 72
2019-08-12 21:00:00 14.1 4 Norte 17 Norte 0 -- -- 67
2019-08-12 20:00:00 15.1 5 Norte 13 Norte 0 -- -- 62
2019-08-12 19:00:00 15.2 5 Noroeste 12 Nordeste 0 -- -- 59
2019-08-12 18:00:00 15 5 Norte 16 Norte 0 -- -- 63
2019-08-12 17:00:00 16.7 8 Norte 18 Norte 0 -- -- 54
2019-08-12 16:00:00 16.6 9 Norte 21 Norte 0 -- -- 57
2019-08-12 15:00:00 17 6 Norte 21 Noroeste 0 -- -- 56
2019-08-12 14:00:00 16 6 Norte 15 Nordeste 0 -- -- 61
2019-08-12 13:00:00 14.8 5 Norte 19 Noroeste 0 -- -- 67
2019-08-12 12:00:00 13.7 8 Norte 18 Nordeste 0 -- -- 69
2019-08-12 11:00:00 11 4 Nordeste 14 Nordeste 0 -- -- 76
2019-08-12 10:00:00 9.8 4 Nordeste 10 Nordeste 0 -- -- 87
2019-08-12 09:00:00 8.7 3 Norte 8 Nordeste 0 -- -- 97
2019-08-12 08:00:00 8.6 3 Norte 11 Nordeste 0 -- -- 98
2019-08-12 07:00:00 8.7 4 Nordeste 12 Norte 0 -- -- 98
2019-08-12 06:00:00 8.9 3 Nordeste 8 Norte 0 -- -- 96
2019-08-12 05:00:00 9 2 Norte 8 Norte 0 -- -- 97
2019-08-12 04:00:00 9 2 Norte 13 Nordeste 0 -- -- 97
2019-08-12 03:00:00 9.3 5 Nordeste 10 Nordeste 0 -- -- 98
2019-08-12 02:00:00 9.3 3 Nordeste 6 Norte 0 -- -- 97
2019-08-12 01:00:00 9.2 0 Calma 3 Nordeste 0 -- -- 97
2019-08-12 00:00:00 9 0 Calma 3 Sur 0 -- -- 96
2019-08-11 23:00:00 9.4 0 Calma 8 Norte 0 -- -- 91
2019-08-11 22:00:00 10.2 5 Norte 20 Norte 0 -- -- 88
2019-08-11 21:00:00 11.3 4 Norte 17 Norte 0 -- -- 91
2019-08-11 20:00:00 12.2 5 Norte 17 Noroeste 0 -- -- 87
2019-08-11 19:00:00 12.1 6 Norte 17 Norte 2 -- -- 90
2019-08-11 18:00:00 12.7 3 Nordeste 33 Noroeste 0.6 -- -- 87
2019-08-11 17:00:00 16.2 8 Oeste 23 Oeste 0 -- -- 63
2019-08-11 16:00:00 17.2 8 Oeste 24 Noroeste 0 -- -- 55
2019-08-11 15:00:00 17.4 6 Oeste 23 Oeste 0 -- -- 58
2019-08-11 14:00:00 16.1 5 Oeste 23 Sudoeste 0 -- -- 60
2019-08-11 13:00:00 15.6 4 Noroeste 15 Sudoeste 0 -- -- 63
2019-08-11 12:00:00 14.9 5 Noroeste 15 Norte 0 -- -- 61
2019-08-11 11:00:00 12.5 5 Norte 12 Noroeste 0 -- -- 69
2019-08-11 10:00:00 11.3 4 Nordeste 12 Nordeste 0 -- -- 82
2019-08-11 09:00:00 10.2 3 Norte 8 Norte 0 -- -- 90
2019-08-11 08:00:00 10.3 0 Calma 9 Noroeste 0 -- -- 90
2019-08-11 07:00:00 10.4 2 Norte 6 Norte 0 -- -- 88
2019-08-11 06:00:00 10.5 0 Calma 5 Nordeste 0 -- -- 88
2019-08-11 05:00:00 10.9 0 Calma 6 Noroeste 0 -- -- 89
2019-08-11 04:00:00 11.1 0 Calma 8 Nordeste 0 -- -- 90
2019-08-11 03:00:00 11.5 3 Norte 11 Norte 0 -- -- 91
2019-08-11 02:00:00 12.2 4 Norte 10 Norte 0 -- -- 89
2019-08-11 01:00:00 12.3 0 Calma 10 Norte 0 -- -- 85
2019-08-11 00:00:00 12.9 2 Nordeste 10 Noroeste 0 -- -- 80
2019-08-10 23:00:00 13.7 2 Norte 12 Nordeste 0 -- -- 78
2019-08-10 22:00:00 14.4 3 Noroeste 13 Noroeste 0 -- -- 80
2019-08-10 21:00:00 15.7 4 Noroeste 16 Oeste 0 -- -- 70
2019-08-10 20:00:00 17.2 8 Noroeste 19 Norte 0 -- -- 63
2019-08-10 19:00:00 18.1 4 Noroeste 16 Noroeste 0 -- -- 57
2019-08-10 18:00:00 19.2 5 Oeste 24 Oeste 0 -- -- 52
2019-08-10 17:00:00 20.5 7 Oeste 22 Sudoeste 0 -- -- 50
2019-08-10 16:00:00 20.7 9 Oeste 23 Oeste 0 -- -- 51
2019-08-10 15:00:00 20.7 9 Sudoeste 20 Norte 0 -- -- 50
2019-08-10 14:00:00 19 5 Sudoeste 19 Noroeste 0 -- -- 57
2019-08-10 13:00:00 18.7 6 Sur 15 Sur 0 -- -- 55
2019-08-10 12:00:00 15.8 4 Oeste 12 Sudoeste 0 -- -- 67
2019-08-10 11:00:00 13.5 3 Oeste 10 Sudoeste 0 -- -- 79
2019-08-10 10:00:00 11.9 0 Calma 5 Sudeste 0 -- -- 84
2019-08-10 09:00:00 9.2 4 Sur 9 Sur 0 -- -- 94
2019-08-10 08:00:00 8.5 4 Sur 9 Sur 0 -- -- 94
2019-08-10 07:00:00 9.2 6 Sur 10 Sur 0 -- -- 92
2019-08-10 06:00:00 9.8 0 Calma 10 Sur 0 -- -- 90
2019-08-10 05:00:00 11 6 Sur 12 Sur 0 -- -- 86
2019-08-10 04:00:00 11.5 5 Sudoeste 11 Sur 0 -- -- 87
2019-08-10 03:00:00 11.8 9 Sur 18 Sur 0 -- -- 83
2019-08-10 02:00:00 12 9 Sur 18 Sudoeste 0 -- -- 84
2019-08-10 01:00:00 12.1 12 Sur 18 Sudoeste 0 -- -- 87
2019-08-10 00:00:00 12.9 9 Sur 19 Sur 0 -- -- 81
2019-08-09 23:00:00 13.6 9 Sur 25 Sur 0 -- -- 80
2019-08-09 22:00:00 13.9 13 Sudoeste 33 Sudoeste 0 -- -- 80
2019-08-09 21:00:00 14.6 14 Sudoeste 36 Sudoeste 0 -- -- 76
2019-08-09 20:00:00 15.3 22 Sudoeste 34 Sur 0 -- -- 73
2019-08-09 19:00:00 15.7 18 Sudoeste 35 Sudoeste 0 -- -- 69
2019-08-09 18:00:00 16.1 7 Sudoeste 46 Oeste 0 -- -- 63
2019-08-09 17:00:00 17.7 20 Sudoeste 46 Sudoeste 0 -- -- 65
2019-08-09 16:00:00 19.5 19 Sudoeste 46 Sudoeste 0 -- -- 63
2019-08-09 15:00:00 18.7 17 Sudoeste 49 Sur 0 -- -- 68
2019-08-09 14:00:00 17.2 23 Sur 42 Sudoeste 0 -- -- 73
2019-08-09 13:00:00 17.4 22 Sur 43 Sur 0 -- -- 74
2019-08-09 12:00:00 15.2 20 Sur 43 Sur 0 -- -- 78
2019-08-09 11:00:00 14 17 Sudoeste 39 Sur 0 -- -- 81
2019-08-09 10:00:00 13.4 22 Sur 40 Sur 0 -- -- 83
2019-08-09 09:00:00 13 19 Sudoeste 35 Sudoeste 0 -- -- 85
2019-08-09 08:00:00 13 18 Sudoeste 44 Sudoeste 0 -- -- 89
2019-08-09 07:00:00 13 27 Sudoeste 52 Sur 0 -- -- 88
2019-08-09 06:00:00 13.1 31 Sur 47 Sur 0 -- -- 90
2019-08-09 05:00:00 14.8 28 Sudoeste 49 Sur 0.2 -- -- 94
2019-08-09 04:00:00 16.7 23 Sudoeste 67 Sur 1 -- -- 95
2019-08-09 03:00:00 17.6 30 Sur 67 Sur 0.6 -- -- 95
2019-08-09 02:00:00 17.8 42 Sur 78 Sur 0 -- -- 93
2019-08-09 01:00:00 17.6 42 Sur 73 Sur 0 -- -- 95
2019-08-09 00:00:00 18 43 Sur 66 Sur 0 -- -- 91
2019-08-08 23:00:00 18.4 48 Sur 69 Sur 0 -- -- 90
2019-08-08 22:00:00 18.6 51 Sur 74 Sur 0 -- -- 88
2019-08-08 21:00:00 19.1 46 Sur 75 Sur 0 -- -- 82
2019-08-08 20:00:00 19.6 35 Sur 82 Sur 0 -- -- 79
2019-08-08 19:00:00 20 51 Sur 83 Sur 0 -- -- 76
2019-08-08 18:00:00 20.9 45 Sur 78 Sur 0 -- -- 76
2019-08-08 17:00:00 20.4 37 Sur 61 Sur 0.2 -- -- 87
2019-08-08 16:00:00 19.9 33 Sur 54 Sur 0.2 -- -- 91
2019-08-08 15:00:00 20.2 26 Sur 53 Sur 0 -- -- 89
2019-08-08 14:00:00 19.9 32 Sur 49 Sur 0.4 -- -- 91
2019-08-08 13:00:00 20 20 Sur 35 Sur 0 -- -- 89
2019-08-08 12:00:00 20.6 22 Sur 38 Sur 0 -- -- 84
2019-08-08 11:00:00 19.4 31 Sur 44 Sur 0 -- -- 86
2019-08-08 10:00:00 17.8 23 Sur 38 Sur 0 -- -- 93
2019-08-08 09:00:00 17.5 10 Sur 24 Sur 0 -- -- 91
2019-08-08 08:00:00 17.3 8 Sur 32 Sur 0 -- -- 89
2019-08-08 07:00:00 17 17 Sur 34 Sur 0 -- -- 89
2019-08-08 06:00:00 17.1 29 Sur 49 Sur 0 -- -- 88
2019-08-08 05:00:00 17 26 Sur 49 Sur 0 -- -- 90
2019-08-08 04:00:00 16.5 21 Sur 41 Sur 0 -- -- 91
2019-08-08 03:00:00 16.5 25 Sur 48 Sur 0 -- -- 92
2019-08-08 02:00:00 16.4 31 Sur 55 Sur 0 -- -- 92
2019-08-08 01:00:00 16 40 Sur 61 Sur 0 -- -- 93
2019-08-08 00:00:00 15.8 33 Sur 52 Sur 0.2 -- -- 94
2019-08-07 23:00:00 15.9 21 Sur 40 Sudoeste 0.6 -- -- 93
2019-08-07 22:00:00 16.6 19 Sur 44 Sudoeste 0 -- -- 88
2019-08-07 21:00:00 16.8 14 Sur 32 Sudeste 0 -- -- 84
2019-08-07 20:00:00 16.5 22 Sur 45 Sur 0 -- -- 89
2019-08-07 19:00:00 16.8 30 Sur 46 Sudoeste 0 -- -- 88
2019-08-07 18:00:00 16.3 23 Sur 36 Sur 0.4 -- -- 91
2019-08-07 17:00:00 16.3 14 Sur 23 Sur 0.8 -- -- 91
2019-08-07 16:00:00 16.5 14 Sur 36 Sur 0.8 -- -- 90
2019-08-07 15:00:00 18.2 27 Sur 37 Sur 0 -- -- 79
2019-08-07 14:00:00 18.4 17 Sur 31 Sur 0 -- -- 78
2019-08-07 13:00:00 18.4 21 Sur 36 Sur 0 -- -- 75
2019-08-07 12:00:00 18.9 20 Sur 33 Sudoeste 0 -- -- 67
2019-08-07 11:00:00 16.9 12 Sur 19 Sur 0 -- -- 80
2019-08-07 10:00:00 14.3 2 Sur 5 Sudoeste 0 -- -- 85
2019-08-07 09:00:00 12.8 0 Calma 5 Sudoeste 0 -- -- 89
2019-08-07 08:00:00 11.7 2 Sudoeste 5 Oeste 0 -- -- 93
2019-08-07 07:00:00 11.5 2 Sudoeste 9 Sudoeste 0 -- -- 93
2019-08-07 06:00:00 12.1 3 Sur 8 Sudoeste 0 -- -- 91
2019-08-07 05:00:00 12.6 0 Calma 9 Sur 0 -- -- 92
2019-08-07 04:00:00 12.7 7 Sur 10 Sur 0 -- -- 91
2019-08-07 03:00:00 13.4 0 Calma 9 Sur 0 -- -- 94
2019-08-07 02:00:00 14.4 4 Sudoeste 8 Sur 0 -- -- 86
2019-08-07 01:00:00 15.2 0 Calma 5 Sur 0 -- -- 86
2019-08-07 00:00:00 16 0 Calma 3 Sudeste 0 -- -- 86
2019-08-06 23:00:00 16.6 0 Calma 10 Sudeste 0 -- -- 86
2019-08-06 22:00:00 16.9 0 Calma 8 Sudeste 0 -- -- 85
2019-08-06 21:00:00 17.1 0 Calma 9 Nordeste 0 -- -- 87
2019-08-06 20:00:00 17.6 3 Nordeste 13 Norte 0 -- -- 85
2019-08-06 19:00:00 18.5 6 Norte 19 Noroeste 0 -- -- 79
2019-08-06 18:00:00 19.3 6 Noroeste 24 Norte 0 -- -- 72
2019-08-06 17:00:00 19.7 7 Noroeste 23 Oeste 0 -- -- 73
2019-08-06 16:00:00 21 5 Oeste 22 Oeste 0 -- -- 66
2019-08-06 15:00:00 21.7 7 Noroeste 19 Oeste 0 -- -- 60
2019-08-06 14:00:00 22.1 4 Sudoeste 10 Sudoeste 0 -- -- 64
2019-08-06 13:00:00 20.9 3 Noroeste 14 Nordeste 0 -- -- 71
2019-08-06 12:00:00 21.6 4 Noroeste 14 Noroeste 0 -- -- 68
2019-08-06 11:00:00 18.8 5 Sur 9 Sur 0 -- -- 74
2019-08-06 10:00:00 15 0 Calma 5 Sur 0 -- -- 88
2019-08-06 09:00:00 13.1 2 Sudoeste 9 Oeste 0 -- -- 94
2019-08-06 08:00:00 12 4 Sudoeste 8 Oeste 0 -- -- 95
2019-08-06 07:00:00 12.3 3 Sur 9 Sudoeste 0 -- -- 94
2019-08-06 06:00:00 12.6 3 Sudoeste 12 Sudoeste 0 -- -- 95
2019-08-06 05:00:00 13 4 Sudoeste 13 Sur 0 -- -- 95
2019-08-06 04:00:00 13.8 2 Sur 6 Sudoeste 0 -- -- 93
2019-08-06 03:00:00 14.7 3 Sur 8 Sur 0 -- -- 91
2019-08-06 02:00:00 15.9 3 Sudoeste 5 Sur 0 -- -- 88
2019-08-06 01:00:00 16.7 0 Calma 5 Sudoeste 0 -- -- 86
2019-08-06 00:00:00 18.3 0 Calma 8 Sur 0 -- -- 81
2019-08-05 23:00:00 19.3 0 Calma 12 Noroeste 0 -- -- 77
2019-08-05 22:00:00 20.4 4 Noroeste 12 Noroeste 0 -- -- 72
2019-08-05 21:00:00 22.1 5 Oeste 16 Oeste 0 -- -- 65
2019-08-05 20:00:00 23.7 8 Noroeste 18 Oeste 0 -- -- 57
2019-08-05 19:00:00 24.4 6 Oeste 16 Noroeste 0 -- -- 52
2019-08-05 18:00:00 25.8 5 Oeste 19 Sudoeste 0 -- -- 47
2019-08-05 17:00:00 26.2 7 Oeste 21 Noroeste 0 -- -- 44
2019-08-05 16:00:00 27.1 9 Oeste 18 Oeste 0 -- -- 46
2019-08-05 15:00:00 25.9 6 Noroeste 16 Norte 0 -- -- 49
2019-08-05 14:00:00 25 5 Sudoeste 14 Oeste 0 -- -- 47
2019-08-05 13:00:00 23.3 4 Nordeste 12 Nordeste 0 -- -- 55
2019-08-05 12:00:00 21 6 Norte 11 Norte 0 -- -- 66
2019-08-05 11:00:00 16 0 Calma 5 Sudeste 0 -- -- 76
2019-08-05 10:00:00 13.4 0 Calma 5 Sudoeste 0 -- -- 78
2019-08-05 09:00:00 11.5 2 Sudoeste 5 Sur 0 -- -- 87
2019-08-05 08:00:00 9.9 0 Calma 6 Sur 0 -- -- 92
2019-08-05 07:00:00 10.6 0 Calma 5 Sur 0 -- -- 91
2019-08-05 06:00:00 11.6 0 Calma 9 Sur 0 -- -- 91
2019-08-05 05:00:00 12.3 4 Sur 9 Sudoeste 0 -- -- 82
2019-08-05 04:00:00 13.8 0 Calma 5 Sur 0 -- -- 91
2019-08-05 03:00:00 15.6 0 Calma 8 Sudeste 0 -- -- 86
2019-08-05 02:00:00 16.3 0 Calma 3 Sudeste 0 -- -- 85
2019-08-05 01:00:00 16.2 0 Calma 6 Sudoeste 0 -- -- 87
2019-08-05 00:00:00 16.5 2 Sudoeste 6 Sudoeste 0 -- -- 85
2019-08-04 23:00:00 17.8 2 Norte 18 Norte 0 -- -- 79
2019-08-04 22:00:00 19 5 Nordeste 17 Norte 0 -- -- 71
2019-08-04 21:00:00 21.1 9 Noroeste 21 Noroeste 0 -- -- 63
2019-08-04 20:00:00 22.8 7 Noroeste 20 Noroeste 0 -- -- 54
2019-08-04 19:00:00 23.5 7 Noroeste 22 Noroeste 0 -- -- 52
2019-08-04 18:00:00 24.4 7 Oeste 28 Noroeste 0 -- -- 50
2019-08-04 17:00:00 25.3 8 Oeste 22 Oeste 0 -- -- 49
2019-08-04 16:00:00 25.4 5 Oeste 19 Oeste 0 -- -- 44
2019-08-04 15:00:00 24.7 5 Sudoeste 15 Oeste 0 -- -- 52
2019-08-04 14:00:00 22.4 4 Oeste 15 Noroeste 0 -- -- 67
2019-08-04 13:00:00 21.7 5 Norte 17 Nordeste 0 -- -- 69
2019-08-04 12:00:00 20.7 8 Nordeste 15 Nordeste 0 -- -- 74
2019-08-04 11:00:00 18.1 6 Norte 10 Norte 0 -- -- 82
2019-08-04 10:00:00 17 2 Sudoeste 7 Sur 0 -- -- 81
2019-08-04 09:00:00 16.4 4 Sudeste 14 Sudeste 0 -- -- 81
2019-08-04 08:00:00 15 10 Sur 15 Sur 0 -- -- 86
2019-08-04 07:00:00 15.4 6 Sudeste 10 Sudeste 0 -- -- 87
2019-08-04 06:00:00 15.7 8 Sudeste 13 Sur 0 -- -- 86
2019-08-04 05:00:00 16.5 0 Calma 3 Noroeste 0 -- -- 87
2019-08-04 04:00:00 16.6 0 Calma 7 Norte 0 -- -- 88
2019-08-04 03:00:00 16.8 3 Norte 9 Sudeste 0 -- -- 89
2019-08-04 02:00:00 17 3 Nordeste 7 Norte 0 -- -- 88
2019-08-04 01:00:00 17.7 5 Norte 11 Norte 0 -- -- 87
2019-08-04 00:00:00 18.3 5 Norte 12 Norte 0 -- -- 84
2019-08-03 23:00:00 19.3 2 Nordeste 7 Sudoeste 0 -- -- 81
2019-08-03 22:00:00 20.6 4 Noroeste 16 Noroeste 0 -- -- 68
2019-08-03 21:00:00 22.4 5 Norte 17 Noroeste 0 -- -- 60
2019-08-03 20:00:00 24.1 10 Noroeste 25 Noroeste 0 -- -- 53
2019-08-03 19:00:00 25.6 6 Oeste 20 Oeste 0 -- -- 45
2019-08-03 18:00:00 26.7 8 Oeste 24 Sudoeste 0 -- -- 43
2019-08-03 17:00:00 27.2 6 Oeste 21 Oeste 0 -- -- 34
2019-08-03 16:00:00 26.9 6 Oeste 23 Noroeste 0 -- -- 43
2019-08-03 15:00:00 26.6 5 Noroeste 17 Sudoeste 0 -- -- 52
2019-08-03 14:00:00 26.2 4 Noroeste 13 Noroeste 0 -- -- 50
2019-08-03 13:00:00 24.6 4 Nordeste 11 Norte 0 -- -- 54
2019-08-03 12:00:00 23.1 5 Norte 11 Norte 0 -- -- 58
2019-08-03 11:00:00 18.1 0 Calma 4 Sudoeste 0 -- -- 74
2019-08-03 10:00:00 15.1 3 Sur 6 Oeste 0 -- -- 82
2019-08-03 09:00:00 13.1 3 Sudoeste 6 Sudoeste 0 -- -- 90
2019-08-03 08:00:00 11.3 4 Sudoeste 8 Oeste 0 -- -- 96
2019-08-03 07:00:00 11.6 3 Sur 8 Sudoeste 0 -- -- 94
2019-08-03 06:00:00 12.2 5 Sudoeste 10 Sudoeste 0 -- -- 95
2019-08-03 05:00:00 12.6 3 Sudoeste 8 Sudoeste 0 -- -- 93
2019-08-03 04:00:00 13.2 3 Sudoeste 9 Sur 0 -- -- 92
2019-08-03 03:00:00 14 3 Sur 7 Sur 0 -- -- 91
2019-08-03 02:00:00 14.5 6 Sur 13 Sudeste 0 -- -- 87
2019-08-03 01:00:00 15.3 7 Sur 12 Sur 0 -- -- 82
2019-08-03 00:00:00 17 2 Sur 8 Sur 0 -- -- 74
2019-08-02 23:00:00 18.9 0 Calma 8 Sudoeste 0 -- -- 69
2019-08-02 22:00:00 20.9 3 Sur 17 Norte 0 -- -- 63
2019-08-02 21:00:00 23.2 5 Norte 16 Noroeste 0 -- -- 56
2019-08-02 20:00:00 24.4 5 Noroeste 17 Norte 0 -- -- 47
2019-08-02 19:00:00 25 5 Noroeste 18 Norte 0 -- -- 44
2019-08-02 18:00:00 25.8 6 Norte 23 Norte 0 -- -- 49
2019-08-02 17:00:00 26.2 5 Noroeste 24 Nordeste 0 -- -- 52
2019-08-02 16:00:00 27.8 5 Oeste 18 Noroeste 0 -- -- 50
2019-08-02 15:00:00 26.1 5 Norte 15 Norte 0 -- -- 55
2019-08-02 14:00:00 25 7 Nordeste 20 Nordeste 0 -- -- 54
2019-08-02 13:00:00 23.8 7 Nordeste 17 Nordeste 0 -- -- 57
2019-08-02 12:00:00 21.9 6 Nordeste 13 Nordeste 0 -- -- 65
2019-08-02 11:00:00 17.6 8 Norte 13 Norte 0 -- -- 72
2019-08-02 10:00:00 14.7 0 Calma 8 Sudoeste 0 -- -- 84
2019-08-02 09:00:00 12.4 0 Calma 8 Oeste 0 -- -- 90
2019-08-02 08:00:00 10.3 6 Oeste 10 Oeste 0 -- -- 96
2019-08-02 07:00:00 10.4 4 Sudoeste 9 Sudoeste 0 -- -- 95
2019-08-02 06:00:00 10.9 4 Sur 10 Sudoeste 0 -- -- 95
2019-08-02 05:00:00 11.2 4 Oeste 9 Oeste 0 -- -- 96
2019-08-02 04:00:00 11.7 2 Sudoeste 9 Sudoeste 0 -- -- 95
2019-08-02 03:00:00 12.3 2 Sudoeste 8 Sur 0 -- -- 93
2019-08-02 02:00:00 12.9 4 Sur 10 Sur 0 -- -- 93
2019-08-02 01:00:00 13.8 5 Sur 8 Sur 0 -- -- 90
2019-08-02 00:00:00 14.9 2 Sudeste 10 Sur 0 -- -- 87
2019-08-01 23:00:00 16.7 4 Sur 9 Noroeste 0 -- -- 83
2019-08-01 22:00:00 18.3 2 Noroeste 19 Norte 0 -- -- 77
2019-08-01 21:00:00 20.3 8 Norte 17 Noroeste 0 -- -- 68
2019-08-01 20:00:00 21.4 6 Noroeste 18 Noroeste 0 -- -- 56
2019-08-01 19:00:00 22.6 6 Noroeste 21 Noroeste 0 -- -- 52
2019-08-01 18:00:00 24.1 8 Noroeste 22 Noroeste 0 -- -- 49
2019-08-01 17:00:00 25 5 Oeste 17 Oeste 0 -- -- 46
2019-08-01 16:00:00 24.9 6 Oeste 21 Norte 0 -- -- 41
2019-08-01 15:00:00 24.2 7 Noroeste 20 Oeste 0 -- -- 50
2019-08-01 14:00:00 23.3 6 Norte 17 Nordeste 0 -- -- 52
2019-08-01 13:00:00 22 9 Nordeste 19 Nordeste 0 -- -- 56
2019-08-01 12:00:00 20.3 9 Norte 13 Nordeste 0 -- -- 66
2019-08-01 11:00:00 16 8 Norte 12 Nordeste 0 -- -- 80
2019-08-01 10:00:00 13.4 2 Norte 4 Norte 0 -- -- 82
2019-08-01 09:00:00 10.7 2 Sudoeste 5 Sudoeste 0 -- -- 90
2019-08-01 08:00:00 8.3 4 Sudoeste 5 Sudoeste 0 -- -- 96
2019-08-01 07:00:00 8.5 3 Sur 6 Sudoeste 0 -- -- 95
2019-08-01 06:00:00 8.8 3 Sudoeste 4 Sudoeste 0 -- -- 95
2019-08-01 05:00:00 9.2 4 Sudoeste 8 Sur 0 -- -- 94
2019-08-01 04:00:00 9.9 2 Sudoeste 6 Oeste 0 -- -- 94
2019-08-01 03:00:00 10.6 3 Sudoeste 6 Sudoeste 0 -- -- 93
2019-08-01 02:00:00 11.5 3 Sudoeste 5 Sudoeste 0 -- -- 91
2019-08-01 01:00:00 12.3 4 Sur 6 Sur 0 -- -- 87
2019-08-01 00:00:00 13.3 4 Sur 10 Sur 0 -- -- 84
2019-07-31 23:00:00 14.9 5 Sur 9 Sur 0 -- -- 78
2019-07-31 22:00:00 16.8 0 Calma 12 Noroeste 0 -- -- 72
2019-07-31 21:00:00 18.9 4 Norte 12 Norte 0 -- -- 62
2019-07-31 20:00:00 19.9 5 Norte 12 Norte 0 -- -- 58
2019-07-31 19:00:00 20.1 6 Noroeste 14 Noroeste 0 -- -- 56
2019-07-31 18:00:00 21.3 5 Nordeste 15 Noroeste 0 -- -- 48
2019-07-31 17:00:00 20.8 4 Noroeste 24 Noroeste 0 -- -- 48
2019-07-31 16:00:00 21.9 10 Norte 19 Norte 0 -- -- 49
2019-07-31 15:00:00 20.8 8 Norte 16 Nordeste 0 -- -- 55
2019-07-31 14:00:00 19.8 8 Norte 16 Norte 0 -- -- 54
2019-07-31 13:00:00 19.5 6 Norte 13 Nordeste 0 -- -- 59
2019-07-31 12:00:00 17 5 Norte 9 Norte 0 -- -- 67
2019-07-31 11:00:00 13.9 5 Norte 10 Norte 0 -- -- 78
2019-07-31 10:00:00 11.3 2 Sur 4 Sur 0 -- -- 82
2019-07-31 09:00:00 8.6 3 Sur 4 Sur 0 -- -- 90
2019-07-31 08:00:00 6.4 3 Sudoeste 6 Sur 0 -- -- 96
2019-07-31 07:00:00 6.7 2 Sudoeste 5 Sudoeste 0 -- -- 95
2019-07-31 06:00:00 7.1 2 Sur 5 Sudoeste 0 -- -- 94
2019-07-31 05:00:00 7.4 0 Calma 8 Sudoeste 0 -- -- 95
2019-07-31 04:00:00 7.5 3 Sur 6 Sudoeste 0 -- -- 92
2019-07-31 03:00:00 7.9 0 Calma 6 Sur 0 -- -- 93
2019-07-31 02:00:00 8.4 5 Sur 9 Sur 0 -- -- 88
2019-07-31 01:00:00 9.2 3 Sur 11 Sur 0 -- -- 85
2019-07-31 00:00:00 10.5 0 Calma 6 Sur 0 -- -- 80
2019-07-30 23:00:00 11.9 0 Calma 4 Este 0 -- -- 74
2019-07-30 22:00:00 13.5 0 Calma 12 Norte 0 -- -- 66
2019-07-30 21:00:00 15.4 5 Norte 17 Norte 0 -- -- 59
2019-07-30 20:00:00 16.7 6 Norte 16 Norte 0 -- -- 55
2019-07-30 19:00:00 17.2 8 Norte 20 Norte 0 -- -- 53
2019-07-30 18:00:00 18.1 9 Norte 21 Norte 0 -- -- 50
2019-07-30 17:00:00 18.5 8 Norte 21 Nordeste 0 -- -- 52
2019-07-30 16:00:00 17.9 9 Nordeste 21 Nordeste 0 -- -- 52
2019-07-30 15:00:00 17.1 6 Norte 20 Norte 0 -- -- 56
2019-07-30 14:00:00 15.6 6 Nordeste 17 Norte 0 -- -- 59
2019-07-30 13:00:00 14.3 7 Nordeste 20 Norte 0 -- -- 65
2019-07-30 12:00:00 13.6 8 Norte 17 Nordeste 0 -- -- 68
2019-07-30 11:00:00 11.5 6 Nordeste 16 Nordeste 0 -- -- 78
2019-07-30 10:00:00 10.1 4 Nordeste 11 Nordeste 0 -- -- 87
2019-07-30 09:00:00 8.7 2 Nordeste 7 Nordeste 0 -- -- 92
2019-07-30 08:00:00 8 2 Norte 6 Norte 0 -- -- 95
2019-07-30 07:00:00 8.4 3 Nordeste 12 Norte 0 -- -- 94
2019-07-30 06:00:00 8.5 5 Norte 13 Norte 0 -- -- 92
2019-07-30 05:00:00 8.2 0 Calma 8 Norte 0 -- -- 95
2019-07-30 04:00:00 8.3 2 Nordeste 7 Norte 0 -- -- 93
2019-07-30 03:00:00 9.1 4 Norte 18 Norte 0 -- -- 91
2019-07-30 02:00:00 9.6 4 Norte 13 Norte 0 -- -- 90
2019-07-30 01:00:00 10 4 Norte 12 Nordeste 0 -- -- 88
2019-07-30 00:00:00 10.3 3 Norte 14 Norte 0 -- -- 88
2019-07-29 23:00:00 11 8 Norte 20 Norte 0 -- -- 85
2019-07-29 22:00:00 11.9 4 Noroeste 27 Noroeste 0 -- -- 79
2019-07-29 21:00:00 13.2 6 Oeste 30 Noroeste 0 -- -- 75
2019-07-29 20:00:00 14.6 8 Oeste 23 Oeste 0 -- -- 69
2019-07-29 19:00:00 15.2 8 Oeste 27 Oeste 0 -- -- 64
2019-07-29 18:00:00 15.8 8 Oeste 29 Oeste 0 -- -- 61
2019-07-29 17:00:00 16 7 Noroeste 30 Sudoeste 0 -- -- 62
2019-07-29 16:00:00 17 10 Oeste 31 Noroeste 0 -- -- 64
2019-07-29 15:00:00 16.8 10 Oeste 30 Oeste 0 -- -- 63
2019-07-29 14:00:00 16.2 7 Oeste 24 Oeste 0 -- -- 69
2019-07-29 13:00:00 15.5 10 Oeste 25 Oeste 0 -- -- 71
2019-07-29 12:00:00 13.8 5 Oeste 21 Sudoeste 0 -- -- 80
2019-07-29 11:00:00 12.1 5 Oeste 19 Noroeste 0 -- -- 90
2019-07-29 10:00:00 12 6 Sudoeste 19 Noroeste 0.2 -- -- 94
2019-07-29 09:00:00 12 4 Oeste 17 Sudoeste 0 -- -- 95
2019-07-29 08:00:00 12.4 9 Oeste 28 Sudoeste 0 -- -- 95
2019-07-29 07:00:00 13.2 5 Oeste 17 Oeste 0 -- -- 93
2019-07-29 06:00:00 13.8 4 Oeste 19 Sur 0 -- -- 89
2019-07-29 05:00:00 13.6 0 Calma 10 Oeste 0 -- -- 75
2019-07-29 04:00:00 13.5 6 Sudoeste 12 Sudoeste 0 -- -- 69
2019-07-29 03:00:00 13.2 4 Sur 12 Sudeste 0 -- -- 63
2019-07-29 02:00:00 13.4 2 Sudoeste 21 Sudeste 0 -- -- 48
2019-07-29 01:00:00 13.8 9 Sur 18 Sudeste 0 -- -- 40
2019-07-29 00:00:00 14.3 8 Sur 19 Sur 0 -- -- 73
2019-07-28 23:00:00 15.6 6 Oeste 17 Oeste 0 -- -- 74
2019-07-28 22:00:00 18.1 6 Oeste 18 Sudoeste 0 -- -- 71
2019-07-28 21:00:00 19.9 5 Oeste 18 Noroeste 0 -- -- 63
2019-07-28 20:00:00 21.9 5 Oeste 21 Sudoeste 0 -- -- 57
2019-07-28 19:00:00 23 13 Oeste 21 Oeste 0 -- -- 48
2019-07-28 18:00:00 23.7 5 Oeste 22 Sudoeste 0 -- -- 49
2019-07-28 17:00:00 25 11 Sudoeste 21 Sudoeste 0 -- -- 36
2019-07-28 16:00:00 24.4 10 Sudoeste 20 Sudoeste 0 -- -- 39
2019-07-28 15:00:00 23.4 5 Sudoeste 17 Sudoeste 0 -- -- 37
2019-07-28 14:00:00 22.3 6 Oeste 16 Sudoeste 0 -- -- 44
2019-07-28 13:00:00 20.6 4 Oeste 21 Oeste 0 -- -- 54
2019-07-28 12:00:00 19.2 8 Sudoeste 22 Sur 0 -- -- 60
2019-07-28 11:00:00 14.1 3 Norte 12 Norte 0 -- -- 84
2019-07-28 10:00:00 11.4 8 Norte 11 Nordeste 0 -- -- 91
2019-07-28 09:00:00 10.6 3 Nordeste 6 Nordeste 0 -- -- 99
2019-07-28 08:00:00 7.7 0 Calma 3 Sur 0 -- -- 100
2019-07-28 07:00:00 7.7 0 Calma 4 Sudeste 0 -- -- 100
2019-07-28 06:00:00 7.7 0 Calma 6 Norte 0 -- -- 98
2019-07-28 05:00:00 8.2 2 Sudoeste 6 Sudoeste 0 -- -- 97
2019-07-28 04:00:00 8.9 2 Sur 7 Sur 0 -- -- 97
2019-07-28 03:00:00 9.3 3 Sur 7 Sur 0 -- -- 95
2019-07-28 02:00:00 9.8 0 Calma 10 Sur 0 -- -- 93
2019-07-28 01:00:00 11 4 Sur 8 Sur 0 -- -- 92
2019-07-28 00:00:00 12.3 0 Calma 8 Oeste 0 -- -- 90
2019-07-27 23:00:00 13.1 0 Calma 16 Norte 0 -- -- 87
2019-07-26 12:00:00 -- -- -- -- -- -- -- -- --
2019-07-26 11:00:00 -- -- -- -- -- -- -- -- --
2019-07-26 10:00:00 -- -- -- -- -- -- -- -- --
2019-07-26 09:00:00 11.7 0 Calma 3 Sudeste 0 -- -- 97
2019-07-26 08:00:00 10.9 0 Calma 3 Este 0 -- -- 99
2019-07-26 07:00:00 10.5 2 Sudoeste 4 Sur 0 -- -- 99
2019-07-26 06:00:00 10.1 2 Sudeste 3 Sudeste 0 -- -- 99
2019-07-26 05:00:00 9.5 0 Calma 3 Sudoeste 0 -- -- 97
2019-07-26 04:00:00 9.9 3 Sur 6 Sur 0 -- -- 97
2019-07-26 03:00:00 10.5 0 Calma 8 Sur 0.2 -- -- 94
2019-07-26 02:00:00 11.7 0 Calma 10 Oeste 0 -- -- 92
2019-07-26 01:00:00 12.3 3 Oeste 11 Noroeste 0 -- -- 93
2019-07-26 00:00:00 13.2 2 Sudoeste 11 Oeste 0 -- -- 93
2019-07-25 23:00:00 13.9 5 Sudoeste 15 Sudoeste 0 -- -- 91
2019-07-25 22:00:00 14.2 5 Sur 19 Oeste 0 -- -- 93
2019-07-25 21:00:00 14.7 6 Oeste 24 Oeste 0.2 -- -- 91
2019-07-25 20:00:00 15.5 4 Oeste 16 Oeste 0.4 -- -- 92
2019-07-25 19:00:00 16.6 5 Oeste 23 Oeste 0 -- -- 89
2019-07-25 18:00:00 16.6 0 Calma 17 Sur 0.2 -- -- 88
2019-07-25 17:00:00 17 5 Sudoeste 23 Noroeste 0 -- -- 89
2019-07-25 16:00:00 21.4 6 Oeste 32 Sudoeste 0 -- -- 69
2019-07-25 15:00:00 22.4 16 Sudoeste 36 Sur 0 -- -- 58
2019-07-25 14:00:00 22.9 18 Sur 37 Sur 0 -- -- 57
2019-07-25 13:00:00 23.1 25 Sur 37 Sur 0 -- -- 57
2019-07-25 12:00:00 22.1 25 Sur 37 Sur 0 -- -- 61
2019-07-25 11:00:00 20.6 17 Sur 26 Sur 0 -- -- 65
2019-07-25 10:00:00 19.6 10 Sudoeste 31 Sur 0 -- -- 70
2019-07-25 09:00:00 17.8 0 Calma 8 Oeste 0 -- -- 74
2019-07-25 08:00:00 16.8 0 Calma 7 Noroeste 0 -- -- 74
2019-07-25 07:00:00 16.6 2 Nordeste 9 Sudoeste 0 -- -- 71
2019-07-25 06:00:00 16.5 2 Sudoeste 8 Sudoeste 0 -- -- 70
2019-07-25 05:00:00 16.1 0 Calma 8 Sudoeste 0 -- -- 70
2019-07-25 04:00:00 14.9 0 Calma 6 Oeste 0 -- -- 75
2019-07-25 03:00:00 14.7 0 Calma 9 Sudoeste 0 -- -- 73
2019-07-25 02:00:00 14.7 2 Sudoeste 8 Sudoeste 0 -- -- 72
2019-07-25 01:00:00 15.4 2 Sudoeste 8 Sur 0 -- -- 69
2019-07-25 00:00:00 16.8 4 Sur 12 Sur 0 -- -- 55
2019-07-24 23:00:00 19.3 2 Sur 6 Sudoeste 0 -- -- 49
2019-07-24 22:00:00 21.3 0 Calma 14 Oeste 0 -- -- 45
2019-07-24 21:00:00 24.3 12 Sudoeste 33 Sudoeste 0 -- -- 36
2019-07-24 20:00:00 26.2 14 Oeste 36 Sudoeste 0 -- -- 37
2019-07-24 19:00:00 27.4 22 Sudoeste 46 Sudoeste 0 -- -- 34
2019-07-24 18:00:00 29 20 Sudoeste 44 Sudoeste 0 -- -- 34
2019-07-24 17:00:00 30 18 Sudoeste 44 Sudoeste 0 -- -- 34
2019-07-24 16:00:00 29.2 18 Sur 45 Sur 0 -- -- 40
2019-07-24 15:00:00 28.9 32 Sur 51 Sur 0 -- -- 40
2019-07-24 14:00:00 28.7 28 Sudoeste 48 Sudoeste 0 -- -- 38
2019-07-24 13:00:00 28.3 22 Sudoeste 39 Sudoeste 0 -- -- 45
2019-07-24 12:00:00 26.7 20 Sur 39 Sur 0 -- -- 51
2019-07-24 11:00:00 20.8 7 Sudoeste 25 Sur 0 -- -- 70
2019-07-24 10:00:00 17.8 7 Norte 18 Nordeste 0 -- -- 82
2019-07-24 09:00:00 15.7 14 Nordeste 17 Norte 0 -- -- 88
2019-07-24 08:00:00 16.3 5 Nordeste 10 Norte 0 -- -- 77
2019-07-24 07:00:00 14.5 2 Noroeste 10 Sur 0 -- -- 84
2019-07-24 06:00:00 13 3 Oeste 9 Oeste 0 -- -- 88
2019-07-24 05:00:00 12.2 5 Sudoeste 9 Sur 0 -- -- 90
2019-07-24 04:00:00 12.8 0 Calma 7 Sur 0 -- -- 90
2019-07-24 03:00:00 13.5 4 Sudeste 6 Sur 0 -- -- 79
2019-07-24 02:00:00 14.5 4 Sur 8 Sur 0 -- -- 83
2019-07-24 01:00:00 15.4 2 Sudoeste 9 Sur 0 -- -- 83
2019-07-24 00:00:00 16.9 0 Calma 6 Sur 0 -- -- 76
2019-07-23 23:00:00 18.5 0 Calma 7 Sur 0 -- -- 70
2019-07-23 22:00:00 20.8 4 Sudeste 9 Sudeste 0 -- -- 62
2019-07-23 21:00:00 22.2 0 Calma 9 Noroeste 0 -- -- 52
2019-07-23 20:00:00 23.1 3 Oeste 14 Oeste 0 -- -- 55
2019-07-23 19:00:00 24.2 3 Oeste 20 Sudoeste 0 -- -- 53
2019-07-23 18:00:00 25.3 8 Oeste 26 Oeste 0.2 -- -- 58
2019-07-23 17:00:00 27.3 8 Oeste 33 Oeste 0 -- -- 51
2019-07-23 16:00:00 28.3 15 Oeste 49 Sudoeste 0 -- -- 46
2019-07-23 15:00:00 26.6 26 Sur 50 Sur 0 -- -- 46
2019-07-23 14:00:00 24.7 19 Sur 44 Sur 0 -- -- 51
2019-07-23 13:00:00 24.1 29 Sur 51 Sudoeste 0 -- -- 49
2019-07-23 12:00:00 25.3 23 Sur 40 Sur 0 -- -- 45
2019-07-23 11:00:00 23.4 8 Norte 17 Norte 0 -- -- 55
2019-07-23 10:00:00 24.2 6 Noroeste 53 Sudeste 0 -- -- 48
2019-07-23 09:00:00 23.3 35 Sur 60 Sur 0 -- -- 44
2019-07-23 08:00:00 22.5 34 Sur 56 Sudeste 0 -- -- 49
2019-07-23 07:00:00 22.9 37 Sur 64 Sudeste 0 -- -- 45
2019-07-23 06:00:00 22.8 27 Sudeste 48 Sur 0 -- -- 42
2019-07-23 05:00:00 20.7 2 Oeste 17 Sudoeste 0 -- -- 53
2019-07-23 04:00:00 21.1 6 Oeste 20 Sudeste 0 -- -- 52
2019-07-23 03:00:00 18.9 5 Sur 11 Sudeste 0 -- -- 72
2019-07-23 02:00:00 20.2 4 Sur 5 Sudoeste 0 -- -- 66
2019-07-23 01:00:00 21.6 6 Norte 10 Norte 0 -- -- 63
2019-07-23 00:00:00 22.8 4 Oeste 26 Sudeste 0 -- -- 69
2019-07-22 23:00:00 23.7 8 Sur 20 Sur 0 -- -- 66
2019-07-22 22:00:00 26 5 Sur 7 Sur 0 -- -- 65
2019-07-22 21:00:00 27.6 5 Noroeste 11 Noroeste 0 -- -- 57
2019-07-22 20:00:00 28.9 6 Norte 22 Oeste 0 -- -- 55
2019-07-22 19:00:00 30.7 6 Noroeste 24 Sudoeste 0 -- -- 46
2019-07-22 18:00:00 32.3 14 Sudoeste 26 Sudoeste 0 -- -- 34
2019-07-22 17:00:00 33.1 14 Sur 27 Sur 0 -- -- 27
2019-07-22 16:00:00 33.2 17 Sudoeste 29 Sur 0 -- -- 24
2019-07-22 15:00:00 32.4 17 Sudoeste 32 Sur 0 -- -- 25
2019-07-22 14:00:00 29.9 15 Sudoeste 30 Oeste 0 -- -- 34
2019-07-22 13:00:00 26 10 Norte 14 Norte 0 -- -- 66
2019-07-22 12:00:00 23.3 10 Norte 14 Norte 0 -- -- 73
2019-07-22 11:00:00 19.5 6 Norte 10 Nordeste 0 -- -- 84
2019-07-22 10:00:00 16.4 0 Calma 2 Sur 0 -- -- 87
2019-07-22 09:00:00 14 0 Calma 5 Sudoeste 0 -- -- 92
2019-07-22 08:00:00 11.9 4 Sudoeste 6 Sudoeste 0 -- -- 97
2019-07-22 07:00:00 11.8 3 Sur 4 Sudoeste 0 -- -- 95
2019-07-22 06:00:00 12.4 0 Calma 4 Sur 0 -- -- 96
2019-07-22 05:00:00 12.8 0 Calma 5 Sudoeste 0 -- -- 95
2019-07-22 04:00:00 13.3 0 Calma 6 Sudoeste 0 -- -- 95
2019-07-22 03:00:00 13.6 5 Sudoeste 9 Sur 0 -- -- 90
2019-07-22 02:00:00 14.7 3 Sudoeste 5 Sudoeste 0 -- -- 90
2019-07-22 01:00:00 15.4 3 Sur 8 Sur 0 -- -- 89
2019-07-22 00:00:00 16.7 3 Sudoeste 6 Sur 0 -- -- 87
2019-07-21 23:00:00 18.1 4 Sur 9 Sur 0 -- -- 82
2019-07-21 22:00:00 20.1 2 Sur 14 Norte 0 -- -- 75
2019-07-21 21:00:00 21.9 6 Norte 14 Norte 0 -- -- 66
2019-07-21 20:00:00 23.6 5 Noroeste 18 Norte 0 -- -- 56
2019-07-21 19:00:00 24.1 5 Noroeste 15 Noroeste 0 -- -- 52
2019-07-21 18:00:00 25.2 5 Noroeste 15 Noroeste 0 -- -- 56
2019-07-21 17:00:00 25.6 7 Norte 17 Norte 0 -- -- 57
2019-07-21 16:00:00 25.5 5 Norte 16 Norte 0 -- -- 60
2019-07-21 15:00:00 26 5 Norte 16 Norte 0 -- -- 58
2019-07-21 14:00:00 24.6 4 Nordeste 14 Nordeste 0 -- -- 56
2019-07-21 13:00:00 22.1 6 Nordeste 14 Nordeste 0 -- -- 63
2019-07-21 12:00:00 19 9 Norte 14 Norte 0 -- -- 79
2019-07-21 11:00:00 16.5 10 Norte 14 Norte 0 -- -- 88
2019-07-21 10:00:00 14.5 2 Norte 5 Nordeste 0 -- -- 86
2019-07-21 09:00:00 12.8 2 Sur 8 Sudoeste 0 -- -- 93
2019-07-21 08:00:00 11 2 Sudoeste 9 Sur 0 -- -- 97
2019-07-21 07:00:00 11.5 2 Sudoeste 6 Sudoeste 0 -- -- 98
2019-07-21 06:00:00 11.8 3 Sudoeste 7 Sudoeste 0 -- -- 96
2019-07-21 05:00:00 12.1 0 Calma 4 Sur 0 -- -- 95
2019-07-21 04:00:00 12.4 0 Calma 5 Sudoeste 0 -- -- 94
2019-07-21 03:00:00 12.8 4 Sur 8 Sur 0 -- -- 90
2019-07-21 02:00:00 13.9 4 Sur 8 Sur 0 -- -- 90
2019-07-21 01:00:00 15 0 Calma 7 Oeste 0 -- -- 90
2019-07-21 00:00:00 15.9 3 Noroeste 18 Norte 0 -- -- 87